sensor_id;sensor_type;location;lat;lon;timestamp;pressure;altitude;pressure_sealevel;temperature;humidity
74675;BME280;63200;48.810;12.352;2024-03-25T00:00:38;96511.88;;;2.97;100.00
74675;BME280;63200;48.810;12.352;2024-03-25T00:03:03;96542.00;;;3.14;100.00
74675;BME280;63200;48.810;12.352;2024-03-25T00:05:29;96554.88;;;3.12;100.00
74675;BME280;63200;48.810;12.352;2024-03-25T00:07:56;96543.63;;;3.15;100.00
74675;BME280;63200;48.810;12.352;2024-03-25T00:10:21;96539.03;;;3.16;100.00
74675;BME280;63200;48.810;12.352;2024-03-25T00:12:47;96540.09;;;3.10;100.00
74675;BME280;63200;48.810;12.352;2024-03-25T00:15:17;96551.09;;;3.08;100.00
74675;BME280;63200;48.810;12.352;2024-03-25T00:17:44;96540.09;;;3.10;100.00
74675;BME280;63200;48.810;12.352;2024-03-25T00:20:10;96542.78;;;3.10;100.00
74675;BME280;63200;48.810;12.352;2024-03-25T00:22:35;96547.06;;;3.06;100.00
74675;BME280;63200;48.810;12.352;2024-03-25T00:25:01;96559.16;;;3.08;100.00
74675;BME280;63200;48.810;12.352;2024-03-25T00:27:26;96540.91;;;3.10;100.00
74675;BME280;63200;48.810;12.352;2024-03-25T00:29:51;96548.66;;;3.07;100.00
74675;BME280;63200;48.810;12.352;2024-03-25T00:32:17;96536.06;;;3.07;100.00
74675;BME280;63200;48.810;12.352;2024-03-25T00:34:42;96550.03;;;3.14;100.00
74675;BME280;63200;48.810;12.352;2024-03-25T00:37:07;96557.59;;;3.17;100.00
74675;BME280;63200;48.810;12.352;2024-03-25T00:39:33;96555.13;;;3.16;100.00
74675;BME280;63200;48.810;12.352;2024-03-25T00:41:59;96552.72;;;3.14;100.00
74675;BME280;63200;48.810;12.352;2024-03-25T00:44:25;96551.66;;;3.15;100.00
74675;BME280;63200;48.810;12.352;2024-03-25T00:46:50;96552.47;;;3.16;100.00
74675;BME280;63200;48.810;12.352;2024-03-25T00:49:16;96558.38;;;3.18;100.00
74675;BME280;63200;48.810;12.352;2024-03-25T00:51:41;96490.78;;;2.68;100.00
74675;BME280;63200;48.810;12.352;2024-03-25T00:54:07;96559.16;;;3.13;100.00
74675;BME280;63200;48.810;12.352;2024-03-25T00:56:32;96490.78;;;2.68;100.00
74675;BME280;63200;48.810;12.352;2024-03-25T00:58:58;96557.00;;;3.10;100.00
74675;BME280;63200;48.810;12.352;2024-03-25T01:01:27;96544.94;;;3.13;100.00
74675;BME280;63200;48.810;12.352;2024-03-25T01:03:52;96488.44;;;2.77;100.00
74675;BME280;63200;48.810;12.352;2024-03-25T01:06:18;96548.72;;;3.17;100.00
74675;BME280;63200;48.810;12.352;2024-03-25T01:08:43;96550.06;;;3.20;100.00
74675;BME280;63200;48.810;12.352;2024-03-25T01:11:08;96551.41;;;3.17;100.00
74675;BME280;63200;48.810;12.352;2024-03-25T01:13:34;96538.50;;;3.14;100.00
74675;BME280;63200;48.810;12.352;2024-03-25T01:15:59;96545.28;;;3.22;100.00
74675;BME280;63200;48.810;12.352;2024-03-25T01:18:24;96536.13;;;3.17;100.00
74675;BME280;63200;48.810;12.352;2024-03-25T01:20:49;96486.88;;;2.86;100.00
74675;BME280;63200;48.810;12.352;2024-03-25T01:23:15;96491.16;;;2.82;100.00
74675;BME280;63200;48.810;12.352;2024-03-25T01:25:41;96543.34;;;3.17;100.00
74675;BME280;63200;48.810;12.352;2024-03-25T01:28:06;96540.44;;;3.24;100.00
74675;BME280;63200;48.810;12.352;2024-03-25T01:30:31;96539.38;;;3.25;100.00
74675;BME280;63200;48.810;12.352;2024-03-25T01:32:57;96538.56;;;3.24;100.00
74675;BME280;63200;48.810;12.352;2024-03-25T01:35:22;96498.72;;;2.95;100.00
74675;BME280;63200;48.810;12.352;2024-03-25T01:37:48;96534.53;;;3.22;100.00
74675;BME280;63200;48.810;12.352;2024-03-25T01:40:14;96542.59;;;3.22;100.00
74675;BME280;63200;48.810;12.352;2024-03-25T01:42:39;96545.28;;;3.22;100.00
74675;BME280;63200;48.810;12.352;2024-03-25T01:45:06;96544.19;;;3.17;100.00
74675;BME280;63200;48.810;12.352;2024-03-25T01:47:32;96549.31;;;3.24;100.00
74675;BME280;63200;48.810;12.352;2024-03-25T01:50:00;96549.84;;;3.26;100.00
74675;BME280;63200;48.810;12.352;2024-03-25T01:52:26;96549.53;;;3.23;100.00
74675;BME280;63200;48.810;12.352;2024-03-25T01:54:53;96549.03;;;3.26;100.00
74675;BME280;63200;48.810;12.352;2024-03-25T01:57:19;96546.63;;;3.24;100.00
74675;BME280;63200;48.810;12.352;2024-03-25T01:59:45;96558.94;;;3.25;100.00
74675;BME280;63200;48.810;12.352;2024-03-25T02:02:11;96529.84;;;2.96;100.00
74675;BME280;63200;48.810;12.352;2024-03-25T02:04:39;96554.66;;;3.24;100.00
74675;BME280;63200;48.810;12.352;2024-03-25T02:07:07;96556.53;;;3.24;100.00
74675;BME280;63200;48.810;12.352;2024-03-25T02:09:33;96546.84;;;3.17;100.00
74675;BME280;63200;48.810;12.352;2024-03-25T02:12:00;96549.53;;;3.17;100.00
74675;BME280;63200;48.810;12.352;2024-03-25T02:14:26;96552.50;;;3.21;100.00
74675;BME280;63200;48.810;12.352;2024-03-25T02:16:51;96559.47;;;3.22;100.00
74675;BME280;63200;48.810;12.352;2024-03-25T02:19:17;96556.00;;;3.22;100.00
74675;BME280;63200;48.810;12.352;2024-03-25T02:21:43;96560.03;;;3.24;100.00
74675;BME280;63200;48.810;12.352;2024-03-25T02:24:09;96558.69;;;3.22;100.00
74675;BME280;63200;48.810;12.352;2024-03-25T02:26:36;96549.81;;;3.21;100.00
74675;BME280;63200;48.810;12.352;2024-03-25T02:29:02;96559.22;;;3.24;100.00
74675;BME280;63200;48.810;12.352;2024-03-25T02:31:27;96555.72;;;3.23;100.00
74675;BME280;63200;48.810;12.352;2024-03-25T02:33:52;96546.41;;;3.36;100.00
74675;BME280;63200;48.810;12.352;2024-03-25T02:36:17;96547.97;;;3.27;100.00
74675;BME280;63200;48.810;12.352;2024-03-25T02:38:43;96536.97;;;3.28;100.00
74675;BME280;63200;48.810;12.352;2024-03-25T02:41:08;96552.00;;;3.24;100.00
74675;BME280;63200;48.810;12.352;2024-03-25T02:43:34;96503.03;;;2.96;100.00
74675;BME280;63200;48.810;12.352;2024-03-25T02:45:59;96538.06;;;3.32;100.00
74675;BME280;63200;48.810;12.352;2024-03-25T02:48:25;96540.78;;;3.38;100.00
74675;BME280;63200;48.810;12.352;2024-03-25T02:50:50;96525.97;;;3.25;100.00
74675;BME280;63200;48.810;12.352;2024-03-25T02:53:16;96503.84;;;3.02;100.00
74675;BME280;63200;48.810;12.352;2024-03-25T02:55:41;96546.63;;;3.29;100.00
74675;BME280;63200;48.810;12.352;2024-03-25T02:58:06;96550.41;;;3.28;100.00
74675;BME280;63200;48.810;12.352;2024-03-25T03:00:31;96489.25;;;2.82;100.00
74675;BME280;63200;48.810;12.352;2024-03-25T03:02:57;96513.69;;;2.86;100.00
74675;BME280;63200;48.810;12.352;2024-03-25T03:05:22;96568.06;;;3.19;100.00
74675;BME280;63200;48.810;12.352;2024-03-25T03:07:47;96561.88;;;3.24;100.00
74675;BME280;63200;48.810;12.352;2024-03-25T03:10:13;96566.72;;;3.22;100.00
74675;BME280;63200;48.810;12.352;2024-03-25T03:12:38;96556.75;;;3.17;100.00
74675;BME280;63200;48.810;12.352;2024-03-25T03:15:03;96571.50;;;3.14;100.00
74675;BME280;63200;48.810;12.352;2024-03-25T03:17:29;96575.50;;;3.12;100.00
74675;BME280;63200;48.810;12.352;2024-03-25T03:19:54;96585.97;;;3.08;100.00
74675;BME280;63200;48.810;12.352;2024-03-25T03:22:19;96580.00;;;3.01;100.00
74675;BME280;63200;48.810;12.352;2024-03-25T03:24:45;96588.81;;;2.96;100.00
74675;BME280;63200;48.810;12.352;2024-03-25T03:27:10;96580.22;;;2.94;100.00
74675;BME280;63200;48.810;12.352;2024-03-25T03:29:35;96576.47;;;2.95;100.00
74675;BME280;63200;48.810;12.352;2024-03-25T03:32:00;96583.38;;;2.86;100.00
74675;BME280;63200;48.810;12.352;2024-03-25T03:34:26;96581.50;;;2.87;100.00
74675;BME280;63200;48.810;12.352;2024-03-25T03:36:51;96579.59;;;2.82;100.00
74675;BME280;63200;48.810;12.352;2024-03-25T03:39:16;96587.34;;;2.78;100.00
74675;BME280;63200;48.810;12.352;2024-03-25T03:41:42;96550.16;;;2.55;100.00
74675;BME280;63200;48.810;12.352;2024-03-25T03:44:08;96586.03;;;2.81;100.00
74675;BME280;63200;48.810;12.352;2024-03-25T03:46:34;96581.50;;;2.87;100.00
74675;BME280;63200;48.810;12.352;2024-03-25T03:48:59;96595.22;;;2.90;100.00
74675;BME280;63200;48.810;12.352;2024-03-25T03:51:25;96590.91;;;2.89;100.00
74675;BME280;63200;48.810;12.352;2024-03-25T03:53:50;96546.78;;;2.70;100.00
74675;BME280;63200;48.810;12.352;2024-03-25T03:56:15;96589.88;;;2.95;100.00
74675;BME280;63200;48.810;12.352;2024-03-25T03:58:41;96582.94;;;2.99;100.00
74675;BME280;63200;48.810;12.352;2024-03-25T04:01:17;96585.38;;;3.06;100.00
74675;BME280;63200;48.810;12.352;2024-03-25T04:03:42;96576.03;;;3.09;100.00
74675;BME280;63200;48.810;12.352;2024-03-25T04:06:12;96582.44;;;3.08;100.00
74675;BME280;63200;48.810;12.352;2024-03-25T04:08:39;96583.50;;;3.07;100.00
74675;BME280;63200;48.810;12.352;2024-03-25T04:11:05;96581.69;;;3.12;100.00
74675;BME280;63200;48.810;12.352;2024-03-25T04:13:32;96585.44;;;3.11;100.00
74675;BME280;63200;48.810;12.352;2024-03-25T04:16:01;96554.47;;;2.93;100.00
74675;BME280;63200;48.810;12.352;2024-03-25T04:18:27;96596.16;;;3.11;100.00
74675;BME280;63200;48.810;12.352;2024-03-25T04:20:53;96588.91;;;3.12;100.00
74675;BME280;63200;48.810;12.352;2024-03-25T04:23:18;96585.44;;;3.11;100.00
74675;BME280;63200;48.810;12.352;2024-03-25T04:25:44;96591.59;;;3.12;100.00
74675;BME280;63200;48.810;12.352;2024-03-25T04:28:09;96584.03;;;3.04;100.00
74675;BME280;63200;48.810;12.352;2024-03-25T04:30:34;96601.47;;;3.06;100.00
74675;BME280;63200;48.810;12.352;2024-03-25T04:33:00;96600.44;;;3.07;100.00
74675;BME280;63200;48.810;12.352;2024-03-25T04:35:25;96603.63;;;3.09;100.00
74675;BME280;63200;48.810;12.352;2024-03-25T04:37:51;96608.50;;;3.12;100.00
74675;BME280;63200;48.810;12.352;2024-03-25T04:40:17;96561.63;;;2.82;100.00
74675;BME280;63200;48.810;12.352;2024-03-25T04:42:45;96604.78;;;3.19;100.00
74675;BME280;63200;48.810;12.352;2024-03-25T04:45:10;96612.56;;;3.15;100.00
74675;BME280;63200;48.810;12.352;2024-03-25T04:47:37;96606.31;;;3.09;100.00
74675;BME280;63200;48.810;12.352;2024-03-25T04:50:02;96607.09;;;3.05;100.00
74675;BME280;63200;48.810;12.352;2024-03-25T04:52:28;96603.59;;;3.04;100.00
74675;BME280;63200;48.810;12.352;2024-03-25T04:54:53;96610.28;;;3.02;100.00
74675;BME280;63200;48.810;12.352;2024-03-25T04:57:18;96618.63;;;3.05;100.00
74675;BME280;63200;48.810;12.352;2024-03-25T04:59:43;96625.84;;;2.99;100.00
74675;BME280;63200;48.810;12.352;2024-03-25T05:02:09;96629.88;;;3.02;100.00
74675;BME280;63200;48.810;12.352;2024-03-25T05:04:34;96622.94;;;3.06;100.00
74675;BME280;63200;48.810;12.352;2024-03-25T05:07:00;96619.47;;;3.06;100.00
74675;BME280;63200;48.810;12.352;2024-03-25T05:09:25;96623.78;;;3.12;100.00
74675;BME280;63200;48.810;12.352;2024-03-25T05:11:51;96621.09;;;3.12;100.00
74675;BME280;63200;48.810;12.352;2024-03-25T05:14:16;96630.78;;;3.18;100.00
74675;BME280;63200;48.810;12.352;2024-03-25T05:16:41;96629.44;;;3.15;100.00
74675;BME280;63200;48.810;12.352;2024-03-25T05:19:06;96628.69;;;3.25;100.00
74675;BME280;63200;48.810;12.352;2024-03-25T05:21:32;96621.69;;;3.19;100.00
74675;BME280;63200;48.810;12.352;2024-03-25T05:23:58;96629.25;;;3.27;100.00
74675;BME280;63200;48.810;12.352;2024-03-25T05:26:23;96626.34;;;3.34;100.00
74675;BME280;63200;48.810;12.352;2024-03-25T05:28:55;96622.00;;;3.28;100.00
74675;BME280;63200;48.810;12.352;2024-03-25T05:31:21;96634.63;;;3.27;100.00
74675;BME280;63200;48.810;12.352;2024-03-25T05:33:47;96640.59;;;3.40;100.00
74675;BME280;63200;48.810;12.352;2024-03-25T05:36:12;96632.81;;;3.38;100.00
74675;BME280;63200;48.810;12.352;2024-03-25T05:38:37;96638.97;;;3.39;100.00
74675;BME280;63200;48.810;12.352;2024-03-25T05:41:03;96644.63;;;3.42;100.00
74675;BME280;63200;48.810;12.352;2024-03-25T05:43:29;96641.69;;;3.44;100.00
74675;BME280;63200;48.810;12.352;2024-03-25T05:45:54;96642.50;;;3.44;100.00
74675;BME280;63200;48.810;12.352;2024-03-25T05:48:21;96648.97;;;3.48;100.00
74675;BME280;63200;48.810;12.352;2024-03-25T05:50:46;96650.06;;;3.53;100.00
74675;BME280;63200;48.810;12.352;2024-03-25T05:53:11;96650.84;;;3.53;100.00
74675;BME280;63200;48.810;12.352;2024-03-25T05:55:37;96657.81;;;3.49;100.00
74675;BME280;63200;48.810;12.352;2024-03-25T05:58:02;96635.44;;;3.33;100.00
74675;BME280;63200;48.810;12.352;2024-03-25T06:00:29;96648.09;;;3.38;100.00
74675;BME280;63200;48.810;12.352;2024-03-25T06:02:55;96668.84;;;3.53;100.00
74675;BME280;63200;48.810;12.352;2024-03-25T06:05:21;96673.16;;;3.54;100.00
74675;BME280;63200;48.810;12.352;2024-03-25T06:07:46;96675.00;;;3.53;100.00
74675;BME280;63200;48.810;12.352;2024-03-25T06:10:11;96673.44;;;3.57;100.00
74675;BME280;63200;48.810;12.352;2024-03-25T06:12:37;96676.94;;;3.58;100.00
74675;BME280;63200;48.810;12.352;2024-03-25T06:15:02;96677.47;;;3.60;100.00
74675;BME280;63200;48.810;12.352;2024-03-25T06:17:27;96674.03;;;3.64;100.00
74675;BME280;63200;48.810;12.352;2024-03-25T06:19:53;96697.38;;;3.69;100.00
74675;BME280;63200;48.810;12.352;2024-03-25T06:22:18;96693.38;;;3.72;100.00
74675;BME280;63200;48.810;12.352;2024-03-25T06:24:43;96697.41;;;3.74;100.00
74675;BME280;63200;48.810;12.352;2024-03-25T06:27:09;96697.41;;;3.74;100.00
74675;BME280;63200;48.810;12.352;2024-03-25T06:29:35;96702.56;;;3.81;100.00
74675;BME280;63200;48.810;12.352;2024-03-25T06:32:01;96696.94;;;3.82;100.00
74675;BME280;63200;48.810;12.352;2024-03-25T06:34:45;96698.59;;;3.94;100.00
74675;BME280;63200;48.810;12.352;2024-03-25T06:37:10;96696.31;;;4.18;100.00
74675;BME280;63200;48.810;12.352;2024-03-25T06:39:35;96699.03;;;4.28;100.00
74675;BME280;63200;48.810;12.352;2024-03-25T06:42:00;96703.38;;;4.40;100.00
74675;BME280;63200;48.810;12.352;2024-03-25T06:44:26;96700.97;;;4.48;100.00
74675;BME280;63200;48.810;12.352;2024-03-25T06:46:51;96701.28;;;4.62;100.00
74675;BME280;63200;48.810;12.352;2024-03-25T06:49:16;96706.97;;;4.76;100.00
74675;BME280;63200;48.810;12.352;2024-03-25T06:51:42;96674.19;;;4.95;100.00
74675;BME280;63200;48.810;12.352;2024-03-25T06:54:07;96718.84;;;5.58;100.00
74675;BME280;63200;48.810;12.352;2024-03-25T06:56:32;96706.22;;;5.22;100.00
74675;BME280;63200;48.810;12.352;2024-03-25T06:58:57;96707.56;;;5.25;100.00
74675;BME280;63200;48.810;12.352;2024-03-25T07:01:23;96722.38;;;5.48;100.00
74675;BME280;63200;48.810;12.352;2024-03-25T07:03:48;96711.81;;;6.69;97.33
74675;BME280;63200;48.810;12.352;2024-03-25T07:06:14;96715.00;;;6.76;82.99
74675;BME280;63200;48.810;12.352;2024-03-25T07:08:39;96716.91;;;6.70;86.21
74675;BME280;63200;48.810;12.352;2024-03-25T07:11:04;96718.59;;;7.06;82.69
74675;BME280;63200;48.810;12.352;2024-03-25T07:13:29;96714.75;;;6.72;85.52
74675;BME280;63200;48.810;12.352;2024-03-25T07:15:55;96724.31;;;6.49;88.18
74675;BME280;63200;48.810;12.352;2024-03-25T07:18:20;96724.44;;;6.73;80.48
74675;BME280;63200;48.810;12.352;2024-03-25T07:20:46;96724.75;;;6.66;85.29
74675;BME280;63200;48.810;12.352;2024-03-25T07:23:11;96727.81;;;7.34;79.06
74675;BME280;63200;48.810;12.352;2024-03-25T07:25:36;96723.31;;;7.88;74.80
74675;BME280;63200;48.810;12.352;2024-03-25T07:28:03;96725.91;;;8.23;72.22
74675;BME280;63200;48.810;12.352;2024-03-25T07:30:28;96725.72;;;8.87;69.18
74675;BME280;63200;48.810;12.352;2024-03-25T07:32:57;96725.84;;;8.95;66.84
74675;BME280;63200;48.810;12.352;2024-03-25T07:35:23;96730.28;;;10.79;63.77
74675;BME280;63200;48.810;12.352;2024-03-25T07:37:48;96719.41;;;10.09;62.90
74675;BME280;63200;48.810;12.352;2024-03-25T07:40:19;96681.44;;;10.09;61.63
74675;BME280;63200;48.810;12.352;2024-03-25T07:42:44;96715.19;;;7.88;67.75
74675;BME280;63200;48.810;12.352;2024-03-25T07:45:10;96687.25;;;8.71;67.01
74675;BME280;63200;48.810;12.352;2024-03-25T07:47:36;96705.22;;;9.19;65.07
74675;BME280;63200;48.810;12.352;2024-03-25T07:50:01;96725.41;;;8.21;68.03
74675;BME280;63200;48.810;12.352;2024-03-25T07:52:27;96720.94;;;8.78;67.98
74675;BME280;63200;48.810;12.352;2024-03-25T07:54:53;96724.59;;;8.20;68.49
74675;BME280;63200;48.810;12.352;2024-03-25T07:57:18;96722.84;;;8.78;65.48
74675;BME280;63200;48.810;12.352;2024-03-25T07:59:44;96722.88;;;7.12;73.06
74675;BME280;63200;48.810;12.352;2024-03-25T08:02:10;96729.00;;;6.12;79.26
74675;BME280;63200;48.810;12.352;2024-03-25T08:04:35;96727.59;;;6.36;85.64
74675;BME280;63200;48.810;12.352;2024-03-25T08:07:00;96733.41;;;6.63;82.22
74675;BME280;63200;48.810;12.352;2024-03-25T08:09:26;96735.47;;;6.82;80.23
74675;BME280;63200;48.810;12.352;2024-03-25T08:11:51;96715.88;;;7.11;75.32
74675;BME280;63200;48.810;12.352;2024-03-25T08:14:17;96739.41;;;6.45;79.16
74675;BME280;63200;48.810;12.352;2024-03-25T08:16:42;96730.66;;;6.03;76.85
74675;BME280;63200;48.810;12.352;2024-03-25T08:19:07;96730.41;;;6.70;79.16
74675;BME280;63200;48.810;12.352;2024-03-25T08:21:32;96740.81;;;7.32;75.80
74675;BME280;63200;48.810;12.352;2024-03-25T08:23:58;96725.63;;;6.57;74.40
74675;BME280;63200;48.810;12.352;2024-03-25T08:26:23;96736.91;;;6.59;78.44
74675;BME280;63200;48.810;12.352;2024-03-25T08:28:48;96733.06;;;7.20;77.78
74675;BME280;63200;48.810;12.352;2024-03-25T08:31:16;96735.56;;;7.11;70.84
74675;BME280;63200;48.810;12.352;2024-03-25T08:33:42;96737.41;;;6.71;75.85
74675;BME280;63200;48.810;12.352;2024-03-25T08:36:07;96746.13;;;6.53;77.58
74675;BME280;63200;48.810;12.352;2024-03-25T08:38:33;96742.56;;;6.62;74.53
74675;BME280;63200;48.810;12.352;2024-03-25T08:40:58;96744.63;;;6.81;82.30
74675;BME280;63200;48.810;12.352;2024-03-25T08:43:23;96740.78;;;7.37;77.16
74675;BME280;63200;48.810;12.352;2024-03-25T08:45:48;96742.13;;;7.00;74.69
74675;BME280;63200;48.810;12.352;2024-03-25T08:48:14;96736.16;;;7.43;72.55
74675;BME280;63200;48.810;12.352;2024-03-25T08:50:39;96740.34;;;7.20;72.69
74675;BME280;63200;48.810;12.352;2024-03-25T08:53:04;96745.78;;;7.54;69.86
74675;BME280;63200;48.810;12.352;2024-03-25T08:55:30;96740.94;;;7.11;69.51
74675;BME280;63200;48.810;12.352;2024-03-25T08:57:56;96734.50;;;7.47;72.02
74675;BME280;63200;48.810;12.352;2024-03-25T09:00:26;96742.56;;;6.67;69.55
74675;BME280;63200;48.810;12.352;2024-03-25T09:02:52;96740.09;;;6.76;74.73
74675;BME280;63200;48.810;12.352;2024-03-25T09:05:18;96738.47;;;6.75;71.61
74675;BME280;63200;48.810;12.352;2024-03-25T09:07:49;96733.09;;;8.08;69.84
74675;BME280;63200;48.810;12.352;2024-03-25T09:10:16;96739.16;;;7.71;68.42
74675;BME280;63200;48.810;12.352;2024-03-25T09:13:11;96741.25;;;7.44;65.66
74675;BME280;63200;48.810;12.352;2024-03-25T09:15:36;96740.31;;;7.59;68.45
74675;BME280;63200;48.810;12.352;2024-03-25T09:18:02;96740.09;;;6.76;70.29
74675;BME280;63200;48.810;12.352;2024-03-25T09:20:27;96751.84;;;6.96;72.45
74675;BME280;63200;48.810;12.352;2024-03-25T09:22:52;96748.28;;;7.06;69.68
74675;BME280;63200;48.810;12.352;2024-03-25T09:25:18;96747.19;;;7.12;69.77
74675;BME280;63200;48.810;12.352;2024-03-25T09:27:50;96746.19;;;7.37;68.42
74675;BME280;63200;48.810;12.352;2024-03-25T09:30:16;96734.50;;;8.30;66.79
74675;BME280;63200;48.810;12.352;2024-03-25T09:32:42;96749.06;;;9.02;62.03
74675;BME280;63200;48.810;12.352;2024-03-25T09:35:08;96744.44;;;8.83;63.06
74675;BME280;63200;48.810;12.352;2024-03-25T09:37:34;96738.84;;;9.50;62.03
74675;BME280;63200;48.810;12.352;2024-03-25T09:39:59;96729.94;;;9.31;57.34
74675;BME280;63200;48.810;12.352;2024-03-25T09:43:16;96727.50;;;9.81;56.76
74675;BME280;63200;48.810;12.352;2024-03-25T09:45:16;96725.47;;;10.20;56.84
74675;BME280;63200;48.810;12.352;2024-03-25T09:47:46;96726.00;;;10.36;56.27
74675;BME280;63200;48.810;12.352;2024-03-25T09:50:13;96722.66;;;9.64;57.23
74675;BME280;63200;48.810;12.352;2024-03-25T09:52:40;96725.44;;;9.59;57.22
74675;BME280;63200;48.810;12.352;2024-03-25T09:55:05;96721.09;;;7.95;58.52
74675;BME280;63200;48.810;12.352;2024-03-25T09:57:31;96726.78;;;7.64;60.43
74675;BME280;63200;48.810;12.352;2024-03-25T09:59:57;96720.25;;;7.71;62.96
74675;BME280;63200;48.810;12.352;2024-03-25T10:02:23;96711.09;;;7.37;63.57
74675;BME280;63200;48.810;12.352;2024-03-25T10:04:52;96693.00;;;6.98;64.31
74675;BME280;63200;48.810;12.352;2024-03-25T10:07:24;96695.81;;;6.77;62.31
74675;BME280;63200;48.810;12.352;2024-03-25T10:09:50;96714.47;;;7.19;63.52
74675;BME280;63200;48.810;12.352;2024-03-25T10:12:15;96601.88;;;6.90;64.45
74675;BME280;63200;48.810;12.352;2024-03-25T10:14:41;96708.78;;;7.20;62.28
74675;BME280;63200;48.810;12.352;2024-03-25T10:17:06;96714.16;;;6.80;61.45
74675;BME280;63200;48.810;12.352;2024-03-25T10:19:33;96703.03;;;6.92;63.09
74675;BME280;63200;48.810;12.352;2024-03-25T10:22:08;96710.97;;;7.13;64.83
74675;BME280;63200;48.810;12.352;2024-03-25T10:24:38;96698.22;;;7.24;64.33
74675;BME280;63200;48.810;12.352;2024-03-25T10:27:05;96711.88;;;7.03;64.30
74675;BME280;63200;48.810;12.352;2024-03-25T10:29:30;96705.91;;;7.06;64.24
74675;BME280;63200;48.810;12.352;2024-03-25T10:31:59;96702.66;;;7.09;63.50
74675;BME280;63200;48.810;12.352;2024-03-25T10:34:25;96701.84;;;7.43;64.08
74675;BME280;63200;48.810;12.352;2024-03-25T10:36:50;96707.25;;;9.27;61.42
74675;BME280;63200;48.810;12.352;2024-03-25T10:39:18;96666.59;;;9.46;57.81
74675;BME280;63200;48.810;12.352;2024-03-25T10:41:46;96659.50;;;8.16;57.19
74675;BME280;63200;48.810;12.352;2024-03-25T10:44:13;96668.06;;;8.67;58.34
74675;BME280;63200;48.810;12.352;2024-03-25T10:46:39;96682.31;;;8.73;58.14
74675;BME280;63200;48.810;12.352;2024-03-25T10:49:16;96647.22;;;8.87;58.40
74675;BME280;63200;48.810;12.352;2024-03-25T10:51:46;96683.94;;;8.93;58.58
74675;BME280;63200;48.810;12.352;2024-03-25T10:54:14;96642.78;;;8.33;58.28
74675;BME280;63200;48.810;12.352;2024-03-25T10:56:39;96672.38;;;8.00;58.81
74675;BME280;63200;48.810;12.352;2024-03-25T10:59:05;96670.13;;;7.83;58.85
74675;BME280;63200;48.810;12.352;2024-03-25T11:01:34;96670.78;;;7.75;59.90
74675;BME280;63200;48.810;12.352;2024-03-25T11:04:00;96665.97;;;7.67;60.37
74675;BME280;63200;48.810;12.352;2024-03-25T11:06:26;96667.59;;;8.16;60.81
74675;BME280;63200;48.810;12.352;2024-03-25T11:08:58;96663.41;;;8.05;60.66
74675;BME280;63200;48.810;12.352;2024-03-25T11:11:30;96612.28;;;8.28;59.10
74675;BME280;63200;48.810;12.352;2024-03-25T11:13:56;96660.75;;;8.00;57.73
74675;BME280;63200;48.810;12.352;2024-03-25T11:16:30;96640.91;;;9.43;55.74
74675;BME280;63200;48.810;12.352;2024-03-25T11:19:01;96651.09;;;9.79;53.36
74675;BME280;63200;48.810;12.352;2024-03-25T11:21:27;96651.59;;;10.23;53.02
74675;BME280;63200;48.810;12.352;2024-03-25T11:23:52;96651.63;;;10.88;52.42
74675;BME280;63200;48.810;12.352;2024-03-25T11:26:24;96654.91;;;11.21;48.56
74675;BME280;63200;48.810;12.352;2024-03-25T11:28:50;96619.75;;;10.29;49.59
74675;BME280;63200;48.810;12.352;2024-03-25T11:31:16;96642.38;;;11.11;48.99
74675;BME280;63200;48.810;12.352;2024-03-25T11:33:44;96637.69;;;12.29;48.29
74675;BME280;63200;48.810;12.352;2024-03-25T11:36:09;96628.03;;;12.05;46.58
74675;BME280;63200;48.810;12.352;2024-03-25T11:38:34;96621.88;;;11.28;47.58
74675;BME280;63200;48.810;12.352;2024-03-25T11:41:00;96625.69;;;10.45;49.10
74675;BME280;63200;48.810;12.352;2024-03-25T11:43:26;96632.72;;;10.46;48.83
74675;BME280;63200;48.810;12.352;2024-03-25T11:45:51;96620.34;;;11.67;49.61
74675;BME280;63200;48.810;12.352;2024-03-25T11:48:19;96617.75;;;11.30;48.83
74675;BME280;63200;48.810;12.352;2024-03-25T11:50:47;96598.09;;;10.65;46.91
74675;BME280;63200;48.810;12.352;2024-03-25T11:53:15;96618.81;;;10.61;49.64
74675;BME280;63200;48.810;12.352;2024-03-25T11:55:45;96557.25;;;11.16;48.86
74675;BME280;63200;48.810;12.352;2024-03-25T11:58:11;96565.00;;;13.26;46.52
74675;BME280;63200;48.810;12.352;2024-03-25T12:00:43;96553.94;;;13.13;45.42
74675;BME280;63200;48.810;12.352;2024-03-25T12:03:08;96599.78;;;14.24;45.26
74675;BME280;63200;48.810;12.352;2024-03-25T12:05:34;96592.56;;;14.49;43.44
74675;BME280;63200;48.810;12.352;2024-03-25T12:07:59;96581.97;;;13.88;42.57
74675;BME280;63200;48.810;12.352;2024-03-25T12:10:26;96586.66;;;14.89;42.05
74675;BME280;63200;48.810;12.352;2024-03-25T12:13:10;96584.34;;;13.98;41.84
74675;BME280;63200;48.810;12.352;2024-03-25T12:15:35;96585.84;;;14.16;40.79
74675;BME280;63200;48.810;12.352;2024-03-25T12:18:01;96572.09;;;13.74;42.56
74675;BME280;63200;48.810;12.352;2024-03-25T12:20:26;96574.34;;;13.72;42.59
74675;BME280;63200;48.810;12.352;2024-03-25T12:22:53;96573.84;;;14.09;43.30
74675;BME280;63200;48.810;12.352;2024-03-25T12:25:18;96584.00;;;14.29;41.66
74675;BME280;63200;48.810;12.352;2024-03-25T12:27:46;96575.56;;;13.45;42.64
74675;BME280;63200;48.810;12.352;2024-03-25T12:30:11;96570.88;;;13.54;44.54
74675;BME280;63200;48.810;12.352;2024-03-25T12:32:43;96571.41;;;13.39;43.46
74675;BME280;63200;48.810;12.352;2024-03-25T12:35:11;96561.66;;;13.11;44.35
74675;BME280;63200;48.810;12.352;2024-03-25T12:37:40;96558.19;;;12.76;45.22
74675;BME280;63200;48.810;12.352;2024-03-25T12:40:07;96556.19;;;13.38;45.67
74675;BME280;63200;48.810;12.352;2024-03-25T12:42:33;96553.16;;;13.69;43.33
74675;BME280;63200;48.810;12.352;2024-03-25T12:44:59;96540.53;;;13.64;41.94
74675;BME280;63200;48.810;12.352;2024-03-25T12:47:24;96542.06;;;13.27;44.51